<?xml version="1.0" encoding="UTF-8" standalone="no" ?>
<gpx xmlns="http://www.topografix.com/GPX/1/1" xmlns:xsi="http://www.w3.org/2001/XMLSchema-instance" xsi:schemaLocation="http://www.topografix.com/GPX/1/1 http://www.topografix.com/GPX/1/1/gpx.xsd" version="1.1" creator="VisuGPX - https://www.visugpx.com">
  <metadata>
    <name>Sentiers de Peygros</name>
    <desc><![CDATA[1 Boucle facile : accessible à tous.
2, 3 et 4 : singles techniques.]]></desc>
  </metadata>
  <wpt lat="43.60058" lon="6.91069">
    <ele>77</ele>
    <name><![CDATA[Départ]]></name>
  </wpt>
  <wpt lat="43.61564" lon="6.90198">
    <ele>283</ele>
    <name><![CDATA[Sommet]]></name>
  </wpt>
  <trk>
    <name><![CDATA[Tracé]]></name>
    <trkseg>
      <trkpt lat="43.62134" lon="6.89662">
        <ele>195.765625</ele>
        <time>2010-12-31T14:02:52Z</time>
      </trkpt>
      <trkpt lat="43.6216" lon="6.89641">
        <ele>194.8043213</ele>
        <time>2010-12-31T14:03:02Z</time>
      </trkpt>
      <trkpt lat="43.62166" lon="6.89626">
        <ele>193.3623047</ele>
        <time>2010-12-31T14:03:11Z</time>
      </trkpt>
      <trkpt lat="43.62162" lon="6.89611">
        <ele>189.9976807</ele>
        <time>2010-12-31T14:03:19Z</time>
      </trkpt>
      <trkpt lat="43.6216" lon="6.89609">
        <ele>189.036377</ele>
        <time>2010-12-31T14:03:21Z</time>
      </trkpt>
      <trkpt lat="43.62156" lon="6.89606">
        <ele>189.036377</ele>
        <time>2010-12-31T14:03:23Z</time>
      </trkpt>
      <trkpt lat="43.62152" lon="6.89603">
        <ele>187.5943604</ele>
        <time>2010-12-31T14:03:25Z</time>
      </trkpt>
      <trkpt lat="43.62131" lon="6.89592">
        <ele>184.7105713</ele>
        <time>2010-12-31T14:03:36Z</time>
      </trkpt>
      <trkpt lat="43.62115" lon="6.89581">
        <ele>182.3071289</ele>
        <time>2010-12-31T14:03:44Z</time>
      </trkpt>
      <trkpt lat="43.62095" lon="6.89575">
        <ele>178.4619141</ele>
        <time>2010-12-31T14:03:55Z</time>
      </trkpt>
      <trkpt lat="43.62087" lon="6.8957">
        <ele>177.5006104</ele>
        <time>2010-12-31T14:03:58Z</time>
      </trkpt>
      <trkpt lat="43.62065" lon="6.8954">
        <ele>177.0200195</ele>
        <time>2010-12-31T14:04:12Z</time>
      </trkpt>
      <trkpt lat="43.62053" lon="6.89527">
        <ele>178.942627</ele>
        <time>2010-12-31T14:04:20Z</time>
      </trkpt>
      <trkpt lat="43.62024" lon="6.89521">
        <ele>180.8652344</ele>
        <time>2010-12-31T14:04:31Z</time>
      </trkpt>
      <trkpt lat="43.62018" lon="6.89518">
        <ele>182.7878418</ele>
        <time>2010-12-31T14:04:41Z</time>
      </trkpt>
      <trkpt lat="43.62018" lon="6.89518">
        <ele>182.7878418</ele>
        <time>2010-12-31T14:04:43Z</time>
      </trkpt>
      <trkpt lat="43.62014" lon="6.89516">
        <ele>182.7878418</ele>
        <time>2010-12-31T14:04:45Z</time>
      </trkpt>
      <trkpt lat="43.62005" lon="6.89515">
        <ele>182.7878418</ele>
        <time>2010-12-31T14:04:50Z</time>
      </trkpt>
      <trkpt lat="43.61994" lon="6.89511">
        <ele>185.6717529</ele>
        <time>2010-12-31T14:05:03Z</time>
      </trkpt>
      <trkpt lat="43.61985" lon="6.89498">
        <ele>186.6331787</ele>
        <time>2010-12-31T14:05:10Z</time>
      </trkpt>
      <trkpt lat="43.61985" lon="6.89498">
        <ele>187.5943604</ele>
        <time>2010-12-31T14:05:13Z</time>
      </trkpt>
      <trkpt lat="43.61981" lon="6.89496">
        <ele>189.036377</ele>
        <time>2010-12-31T14:05:23Z</time>
      </trkpt>
      <trkpt lat="43.61981" lon="6.89496">
        <ele>190.4783936</ele>
        <time>2010-12-31T14:05:33Z</time>
      </trkpt>
      <trkpt lat="43.61955" lon="6.8949">
        <ele>191.4395752</ele>
        <time>2010-12-31T14:05:45Z</time>
      </trkpt>
      <trkpt lat="43.61935" lon="6.89482">
        <ele>194.3237305</ele>
        <time>2010-12-31T14:05:57Z</time>
      </trkpt>
      <trkpt lat="43.61935" lon="6.89482">
        <ele>195.765625</ele>
        <time>2010-12-31T14:06:07Z</time>
      </trkpt>
      <trkpt lat="43.61926" lon="6.89477">
        <ele>197.2075195</ele>
        <time>2010-12-31T14:06:18Z</time>
      </trkpt>
      <trkpt lat="43.61916" lon="6.89452">
        <ele>199.130127</ele>
        <time>2010-12-31T14:06:34Z</time>
      </trkpt>
      <trkpt lat="43.6192" lon="6.89444">
        <ele>200.5722656</ele>
        <time>2010-12-31T14:06:38Z</time>
      </trkpt>
      <trkpt lat="43.61921" lon="6.89443">
        <ele>201.0528564</ele>
        <time>2010-12-31T14:06:51Z</time>
      </trkpt>
      <trkpt lat="43.61921" lon="6.89443">
        <ele>201.0528564</ele>
        <time>2010-12-31T14:07:11Z</time>
      </trkpt>
      <trkpt lat="43.61921" lon="6.89427">
        <ele>201.0528564</ele>
        <time>2010-12-31T14:07:17Z</time>
      </trkpt>
      <trkpt lat="43.61916" lon="6.8945">
        <ele>197.6882324</ele>
        <time>2010-12-31T14:07:22Z</time>
      </trkpt>
      <trkpt lat="43.61916" lon="6.8945">
        <ele>197.6882324</ele>
        <time>2010-12-31T14:07:23Z</time>
      </trkpt>
      <trkpt lat="43.61916" lon="6.8945">
        <ele>194.3237305</ele>
        <time>2010-12-31T14:07:30Z</time>
      </trkpt>
      <trkpt lat="43.61869" lon="6.89456">
        <ele>191.4395752</ele>
        <time>2010-12-31T14:07:36Z</time>
      </trkpt>
      <trkpt lat="43.61866" lon="6.89457">
        <ele>191.4395752</ele>
        <time>2010-12-31T14:07:37Z</time>
      </trkpt>
      <trkpt lat="43.61854" lon="6.89465">
        <ele>189.036377</ele>
        <time>2010-12-31T14:07:41Z</time>
      </trkpt>
      <trkpt lat="43.61849" lon="6.89469">
        <ele>187.5943604</ele>
        <time>2010-12-31T14:07:43Z</time>
      </trkpt>
      <trkpt lat="43.61827" lon="6.89468">
        <ele>186.1524658</ele>
        <time>2010-12-31T14:07:49Z</time>
      </trkpt>
      <trkpt lat="43.61813" lon="6.89473">
        <ele>184.7105713</ele>
        <time>2010-12-31T14:07:53Z</time>
      </trkpt>
      <trkpt lat="43.61802" lon="6.89477">
        <ele>183.7490234</ele>
        <time>2010-12-31T14:07:58Z</time>
      </trkpt>
      <trkpt lat="43.61796" lon="6.89472">
        <ele>182.3071289</ele>
        <time>2010-12-31T14:08:02Z</time>
      </trkpt>
      <trkpt lat="43.61793" lon="6.89465">
        <ele>181.826416</ele>
        <time>2010-12-31T14:08:04Z</time>
      </trkpt>
      <trkpt lat="43.61786" lon="6.89459">
        <ele>179.9038086</ele>
        <time>2010-12-31T14:08:07Z</time>
      </trkpt>
      <trkpt lat="43.61781" lon="6.89454">
        <ele>178.942627</ele>
        <time>2010-12-31T14:08:09Z</time>
      </trkpt>
      <trkpt lat="43.61776" lon="6.89453">
        <ele>177.5006104</ele>
        <time>2010-12-31T14:08:11Z</time>
      </trkpt>
      <trkpt lat="43.61766" lon="6.89444">
        <ele>175.09729</ele>
        <time>2010-12-31T14:08:16Z</time>
      </trkpt>
      <trkpt lat="43.61745" lon="6.89437">
        <ele>172.2132568</ele>
        <time>2010-12-31T14:08:23Z</time>
      </trkpt>
      <trkpt lat="43.61734" lon="6.89438">
        <ele>170.2906494</ele>
        <time>2010-12-31T14:08:27Z</time>
      </trkpt>
      <trkpt lat="43.6173" lon="6.89435">
        <ele>169.3294678</ele>
        <time>2010-12-31T14:08:29Z</time>
      </trkpt>
      <trkpt lat="43.61724" lon="6.89436">
        <ele>167.8873291</ele>
        <time>2010-12-31T14:08:32Z</time>
      </trkpt>
      <trkpt lat="43.6172" lon="6.89443">
        <ele>166.4453125</ele>
        <time>2010-12-31T14:08:35Z</time>
      </trkpt>
      <trkpt lat="43.61716" lon="6.89457">
        <ele>164.5227051</ele>
        <time>2010-12-31T14:08:41Z</time>
      </trkpt>
      <trkpt lat="43.61711" lon="6.89457">
        <ele>162.1195068</ele>
        <time>2010-12-31T14:08:45Z</time>
      </trkpt>
      <trkpt lat="43.61704" lon="6.89445">
        <ele>160.6774902</ele>
        <time>2010-12-31T14:08:49Z</time>
      </trkpt>
      <trkpt lat="43.61703" lon="6.89427">
        <ele>159.7161865</ele>
        <time>2010-12-31T14:08:53Z</time>
      </trkpt>
      <trkpt lat="43.61703" lon="6.89424">
        <ele>158.2741699</ele>
        <time>2010-12-31T14:08:54Z</time>
      </trkpt>
      <trkpt lat="43.61696" lon="6.8942">
        <ele>155.8709717</ele>
        <time>2010-12-31T14:08:59Z</time>
      </trkpt>
      <trkpt lat="43.61692" lon="6.89412">
        <ele>154.4289551</ele>
        <time>2010-12-31T14:09:02Z</time>
      </trkpt>
      <trkpt lat="43.61688" lon="6.89415">
        <ele>153.4676514</ele>
        <time>2010-12-31T14:09:04Z</time>
      </trkpt>
      <trkpt lat="43.6168" lon="6.89428">
        <ele>151.064209</ele>
        <time>2010-12-31T14:09:09Z</time>
      </trkpt>
      <trkpt lat="43.61676" lon="6.8941">
        <ele>147.2189941</ele>
        <time>2010-12-31T14:09:16Z</time>
      </trkpt>
      <trkpt lat="43.61679" lon="6.894">
        <ele>146.2578125</ele>
        <time>2010-12-31T14:09:19Z</time>
      </trkpt>
      <trkpt lat="43.61681" lon="6.89391">
        <ele>144.8157959</ele>
        <time>2010-12-31T14:09:23Z</time>
      </trkpt>
      <trkpt lat="43.61678" lon="6.89383">
        <ele>143.8543701</ele>
        <time>2010-12-31T14:09:27Z</time>
      </trkpt>
      <trkpt lat="43.61655" lon="6.8937">
        <ele>140.970459</ele>
        <time>2010-12-31T14:09:39Z</time>
      </trkpt>
      <trkpt lat="43.61643" lon="6.89371">
        <ele>138.0865479</ele>
        <time>2010-12-31T14:09:44Z</time>
      </trkpt>
      <trkpt lat="43.61619" lon="6.89369">
        <ele>136.6446533</ele>
        <time>2010-12-31T14:09:53Z</time>
      </trkpt>
      <trkpt lat="43.61606" lon="6.89379">
        <ele>136.1639404</ele>
        <time>2010-12-31T14:10:04Z</time>
      </trkpt>
      <trkpt lat="43.61596" lon="6.89396">
        <ele>134.7219238</ele>
        <time>2010-12-31T14:10:35Z</time>
      </trkpt>
      <trkpt lat="43.61584" lon="6.894">
        <ele>134.2412109</ele>
        <time>2010-12-31T14:10:38Z</time>
      </trkpt>
      <trkpt lat="43.61565" lon="6.89417">
        <ele>132.7993164</ele>
        <time>2010-12-31T14:10:43Z</time>
      </trkpt>
      <trkpt lat="43.61546" lon="6.8942">
        <ele>131.3572998</ele>
        <time>2010-12-31T14:10:47Z</time>
      </trkpt>
      <trkpt lat="43.6154" lon="6.8942">
        <ele>130.876709</ele>
        <time>2010-12-31T14:10:48Z</time>
      </trkpt>
      <trkpt lat="43.61525" lon="6.89424">
        <ele>130.876709</ele>
        <time>2010-12-31T14:10:52Z</time>
      </trkpt>
      <trkpt lat="43.61506" lon="6.89434">
        <ele>129.4346924</ele>
        <time>2010-12-31T14:10:58Z</time>
      </trkpt>
      <trkpt lat="43.61496" lon="6.8944">
        <ele>128.4733887</ele>
        <time>2010-12-31T14:11:01Z</time>
      </trkpt>
      <trkpt lat="43.61484" lon="6.89446">
        <ele>127.0313721</ele>
        <time>2010-12-31T14:11:04Z</time>
      </trkpt>
      <trkpt lat="43.61466" lon="6.89448">
        <ele>126.0699463</ele>
        <time>2010-12-31T14:11:10Z</time>
      </trkpt>
      <trkpt lat="43.61463" lon="6.89448">
        <ele>124.6280518</ele>
        <time>2010-12-31T14:11:13Z</time>
      </trkpt>
      <trkpt lat="43.61463" lon="6.89448">
        <ele>124.1473389</ele>
        <time>2010-12-31T14:11:14Z</time>
      </trkpt>
      <trkpt lat="43.61458" lon="6.8946">
        <ele>122.2247314</ele>
        <time>2010-12-31T14:11:21Z</time>
      </trkpt>
      <trkpt lat="43.61448" lon="6.89459">
        <ele>118.8601074</ele>
        <time>2010-12-31T14:11:26Z</time>
      </trkpt>
      <trkpt lat="43.61432" lon="6.89449">
        <ele>115.0148926</ele>
        <time>2010-12-31T14:11:35Z</time>
      </trkpt>
      <trkpt lat="43.61423" lon="6.8945">
        <ele>112.6115723</ele>
        <time>2010-12-31T14:11:41Z</time>
      </trkpt>
      <trkpt lat="43.61419" lon="6.89449">
        <ele>111.1695557</ele>
        <time>2010-12-31T14:11:43Z</time>
      </trkpt>
      <trkpt lat="43.61416" lon="6.89447">
        <ele>110.208252</ele>
        <time>2010-12-31T14:11:45Z</time>
      </trkpt>
      <trkpt lat="43.61409" lon="6.89443">
        <ele>107.8050537</ele>
        <time>2010-12-31T14:11:48Z</time>
      </trkpt>
      <trkpt lat="43.61405" lon="6.89439">
        <ele>106.8436279</ele>
        <time>2010-12-31T14:11:50Z</time>
      </trkpt>
      <trkpt lat="43.61396" lon="6.89438">
        <ele>104.4404297</ele>
        <time>2010-12-31T14:11:55Z</time>
      </trkpt>
      <trkpt lat="43.61394" lon="6.89437">
        <ele>102.998291</ele>
        <time>2010-12-31T14:11:56Z</time>
      </trkpt>
      <trkpt lat="43.61384" lon="6.89435">
        <ele>101.5563965</ele>
        <time>2010-12-31T14:12:01Z</time>
      </trkpt>
      <trkpt lat="43.61375" lon="6.89433">
        <ele>99.1530762</ele>
        <time>2010-12-31T14:12:04Z</time>
      </trkpt>
      <trkpt lat="43.61359" lon="6.89431">
        <ele>95.3077393</ele>
        <time>2010-12-31T14:12:10Z</time>
      </trkpt>
      <trkpt lat="43.61356" lon="6.89431">
        <ele>95.3077393</ele>
        <time>2010-12-31T14:12:11Z</time>
      </trkpt>
      <trkpt lat="43.61343" lon="6.89428">
        <ele>91.9432373</ele>
        <time>2010-12-31T14:12:17Z</time>
      </trkpt>
      <trkpt lat="43.61341" lon="6.89426">
        <ele>91.9432373</ele>
        <time>2010-12-31T14:12:18Z</time>
      </trkpt>
      <trkpt lat="43.61328" lon="6.8942">
        <ele>89.0593262</ele>
        <time>2010-12-31T14:12:23Z</time>
      </trkpt>
      <trkpt lat="43.61322" lon="6.89419">
        <ele>87.6171875</ele>
        <time>2010-12-31T14:12:25Z</time>
      </trkpt>
      <trkpt lat="43.61316" lon="6.89418">
        <ele>86.175293</ele>
        <time>2010-12-31T14:12:27Z</time>
      </trkpt>
      <trkpt lat="43.61312" lon="6.89416">
        <ele>84.2526855</ele>
        <time>2010-12-31T14:12:29Z</time>
      </trkpt>
      <trkpt lat="43.61308" lon="6.89414">
        <ele>82.810791</ele>
        <time>2010-12-31T14:12:36Z</time>
      </trkpt>
      <trkpt lat="43.613" lon="6.8941">
        <ele>80.8881836</ele>
        <time>2010-12-31T14:12:40Z</time>
      </trkpt>
      <trkpt lat="43.61291" lon="6.89404">
        <ele>78.9654541</ele>
        <time>2010-12-31T14:12:44Z</time>
      </trkpt>
      <trkpt lat="43.61285" lon="6.89408">
        <ele>76.0814209</ele>
        <time>2010-12-31T14:12:51Z</time>
      </trkpt>
      <trkpt lat="43.61283" lon="6.89405">
        <ele>76.0814209</ele>
        <time>2010-12-31T14:12:52Z</time>
      </trkpt>
      <trkpt lat="43.61279" lon="6.89401">
        <ele>75.1202393</ele>
        <time>2010-12-31T14:12:54Z</time>
      </trkpt>
      <trkpt lat="43.61269" lon="6.89407">
        <ele>72.7169189</ele>
        <time>2010-12-31T14:13:00Z</time>
      </trkpt>
      <trkpt lat="43.61263" lon="6.89405">
        <ele>71.2749023</ele>
        <time>2010-12-31T14:13:03Z</time>
      </trkpt>
      <trkpt lat="43.61262" lon="6.894">
        <ele>70.7941895</ele>
        <time>2010-12-31T14:13:05Z</time>
      </trkpt>
      <trkpt lat="43.61261" lon="6.89392">
        <ele>68.871582</ele>
        <time>2010-12-31T14:13:07Z</time>
      </trkpt>
      <trkpt lat="43.61262" lon="6.89387">
        <ele>68.3908691</ele>
        <time>2010-12-31T14:13:08Z</time>
      </trkpt>
      <trkpt lat="43.61266" lon="6.89368">
        <ele>66.9489746</ele>
        <time>2010-12-31T14:13:13Z</time>
      </trkpt>
      <trkpt lat="43.61269" lon="6.89362">
        <ele>65.5070801</ele>
        <time>2010-12-31T14:13:15Z</time>
      </trkpt>
      <trkpt lat="43.61269" lon="6.89361">
        <ele>65.5070801</ele>
        <time>2010-12-31T14:13:22Z</time>
      </trkpt>
      <trkpt lat="43.61269" lon="6.89347">
        <ele>64.0650635</ele>
        <time>2010-12-31T14:13:26Z</time>
      </trkpt>
      <trkpt lat="43.6127" lon="6.89338">
        <ele>62.6229248</ele>
        <time>2010-12-31T14:13:28Z</time>
      </trkpt>
      <trkpt lat="43.6127" lon="6.89331">
        <ele>61.1810303</ele>
        <time>2010-12-31T14:13:30Z</time>
      </trkpt>
      <trkpt lat="43.61271" lon="6.89325">
        <ele>59.2584229</ele>
        <time>2010-12-31T14:13:32Z</time>
      </trkpt>
      <trkpt lat="43.61273" lon="6.89319">
        <ele>58.77771</ele>
        <time>2010-12-31T14:13:43Z</time>
      </trkpt>
      <trkpt lat="43.61272" lon="6.89318">
        <ele>58.2971191</ele>
        <time>2010-12-31T14:14:07Z</time>
      </trkpt>
      <trkpt lat="43.61276" lon="6.89309">
        <ele>54.4517822</ele>
        <time>2010-12-31T14:14:15Z</time>
      </trkpt>
      <trkpt lat="43.61277" lon="6.8931">
        <ele>54.4517822</ele>
        <time>2010-12-31T14:14:16Z</time>
      </trkpt>
      <trkpt lat="43.61276" lon="6.89308">
        <ele>55.4130859</ele>
        <time>2010-12-31T14:14:32Z</time>
      </trkpt>
      <trkpt lat="43.61271" lon="6.8931">
        <ele>55.4130859</ele>
        <time>2010-12-31T14:14:35Z</time>
      </trkpt>
      <trkpt lat="43.61267" lon="6.89313">
        <ele>53.9711914</ele>
        <time>2010-12-31T14:14:37Z</time>
      </trkpt>
      <trkpt lat="43.61265" lon="6.89314">
        <ele>53.0097656</ele>
        <time>2010-12-31T14:14:38Z</time>
      </trkpt>
      <trkpt lat="43.61261" lon="6.89314">
        <ele>52.048584</ele>
        <time>2010-12-31T14:14:40Z</time>
      </trkpt>
      <trkpt lat="43.61257" lon="6.89317">
        <ele>50.6065674</ele>
        <time>2010-12-31T14:14:42Z</time>
      </trkpt>
      <trkpt lat="43.61254" lon="6.89307">
        <ele>48.2033691</ele>
        <time>2010-12-31T14:14:47Z</time>
      </trkpt>
      <trkpt lat="43.61256" lon="6.89303">
        <ele>46.7612305</ele>
        <time>2010-12-31T14:14:48Z</time>
      </trkpt>
      <trkpt lat="43.61261" lon="6.89285">
        <ele>43.3966064</ele>
        <time>2010-12-31T14:14:54Z</time>
      </trkpt>
      <trkpt lat="43.61264" lon="6.89279">
        <ele>41.473999</ele>
        <time>2010-12-31T14:14:56Z</time>
      </trkpt>
      <trkpt lat="43.6127" lon="6.89272">
        <ele>39.5512695</ele>
        <time>2010-12-31T14:14:59Z</time>
      </trkpt>
      <trkpt lat="43.61274" lon="6.8927">
        <ele>39.0706787</ele>
        <time>2010-12-31T14:15:01Z</time>
      </trkpt>
      <trkpt lat="43.61272" lon="6.89264">
        <ele>37.1480713</ele>
        <time>2010-12-31T14:15:05Z</time>
      </trkpt>
      <trkpt lat="43.61254" lon="6.89265">
        <ele>32.3415527</ele>
        <time>2010-12-31T14:15:12Z</time>
      </trkpt>
      <trkpt lat="43.61251" lon="6.89266">
        <ele>32.3415527</ele>
        <time>2010-12-31T14:15:13Z</time>
      </trkpt>
      <trkpt lat="43.61245" lon="6.89267">
        <ele>30.8995361</ele>
        <time>2010-12-31T14:15:15Z</time>
      </trkpt>
      <trkpt lat="43.61235" lon="6.89268">
        <ele>28.9769287</ele>
        <time>2010-12-31T14:15:19Z</time>
      </trkpt>
      <trkpt lat="43.61232" lon="6.8927">
        <ele>28.0155029</ele>
        <time>2010-12-31T14:15:21Z</time>
      </trkpt>
      <trkpt lat="43.61226" lon="6.89271">
        <ele>25.6123047</ele>
        <time>2010-12-31T14:15:34Z</time>
      </trkpt>
      <trkpt lat="43.6122" lon="6.89275">
        <ele>22.7282715</ele>
        <time>2010-12-31T14:15:38Z</time>
      </trkpt>
      <trkpt lat="43.61218" lon="6.89273">
        <ele>21.7669678</ele>
        <time>2010-12-31T14:15:40Z</time>
      </trkpt>
      <trkpt lat="43.61218" lon="6.8927">
        <ele>20.8056641</ele>
        <time>2010-12-31T14:15:41Z</time>
      </trkpt>
      <trkpt lat="43.61215" lon="6.89253">
        <ele>17.9217529</ele>
        <time>2010-12-31T14:15:45Z</time>
      </trkpt>
      <trkpt lat="43.61208" lon="6.89252">
        <ele>16.9604492</ele>
        <time>2010-12-31T14:15:50Z</time>
      </trkpt>
      <trkpt lat="43.61208" lon="6.8926">
        <ele>17.4411621</ele>
        <time>2010-12-31T14:15:55Z</time>
      </trkpt>
      <trkpt lat="43.61211" lon="6.89315">
        <ele>16.4797363</ele>
        <time>2010-12-31T14:16:08Z</time>
      </trkpt>
      <trkpt lat="43.6121" lon="6.89341">
        <ele>16.4797363</ele>
        <time>2010-12-31T14:16:12Z</time>
      </trkpt>
      <trkpt lat="43.61192" lon="6.89416">
        <ele>16.4797363</ele>
        <time>2010-12-31T14:16:23Z</time>
      </trkpt>
      <trkpt lat="43.61183" lon="6.89438">
        <ele>15.9990234</ele>
        <time>2010-12-31T14:16:26Z</time>
      </trkpt>
      <trkpt lat="43.61111" lon="6.89495">
        <ele>14.5570068</ele>
        <time>2010-12-31T14:16:38Z</time>
      </trkpt>
      <trkpt lat="43.61002" lon="6.89573">
        <ele>14.076416</ele>
        <time>2010-12-31T14:16:55Z</time>
      </trkpt>
      <trkpt lat="43.60972" lon="6.89598">
        <ele>13.1151123</ele>
        <time>2010-12-31T14:17:00Z</time>
      </trkpt>
      <trkpt lat="43.60953" lon="6.89625">
        <ele>13.1151123</ele>
        <time>2010-12-31T14:17:04Z</time>
      </trkpt>
      <trkpt lat="43.60905" lon="6.89738">
        <ele>13.1151123</ele>
        <time>2010-12-31T14:17:18Z</time>
      </trkpt>
      <trkpt lat="43.60888" lon="6.89769">
        <ele>13.5958252</ele>
        <time>2010-12-31T14:17:22Z</time>
      </trkpt>
      <trkpt lat="43.60851" lon="6.89814">
        <ele>13.1151123</ele>
        <time>2010-12-31T14:17:29Z</time>
      </trkpt>
      <trkpt lat="43.60815" lon="6.89841">
        <ele>13.5958252</ele>
        <time>2010-12-31T14:17:35Z</time>
      </trkpt>
      <trkpt lat="43.60791" lon="6.89884">
        <ele>13.5958252</ele>
        <time>2010-12-31T14:17:41Z</time>
      </trkpt>
      <trkpt lat="43.60785" lon="6.89909">
        <ele>13.1151123</ele>
        <time>2010-12-31T14:17:44Z</time>
      </trkpt>
      <trkpt lat="43.60715" lon="6.90045">
        <ele>13.1151123</ele>
        <time>2010-12-31T14:18:02Z</time>
      </trkpt>
      <trkpt lat="43.60669" lon="6.90117">
        <ele>13.1151123</ele>
        <time>2010-12-31T14:18:13Z</time>
      </trkpt>
      <trkpt lat="43.6066" lon="6.90166">
        <ele>13.1151123</ele>
        <time>2010-12-31T14:18:19Z</time>
      </trkpt>
      <trkpt lat="43.60659" lon="6.90198">
        <ele>13.5958252</ele>
        <time>2010-12-31T14:18:23Z</time>
      </trkpt>
      <trkpt lat="43.60658" lon="6.90223">
        <ele>14.076416</ele>
        <time>2010-12-31T14:18:26Z</time>
      </trkpt>
      <trkpt lat="43.60668" lon="6.90267">
        <ele>14.5570068</ele>
        <time>2010-12-31T14:18:32Z</time>
      </trkpt>
      <trkpt lat="43.60661" lon="6.90302">
        <ele>14.076416</ele>
        <time>2010-12-31T14:18:37Z</time>
      </trkpt>
      <trkpt lat="43.6064" lon="6.90335">
        <ele>15.9990234</ele>
        <time>2010-12-31T14:18:43Z</time>
      </trkpt>
      <trkpt lat="43.60634" lon="6.90344">
        <ele>16.9604492</ele>
        <time>2010-12-31T14:18:45Z</time>
      </trkpt>
      <trkpt lat="43.60625" lon="6.90362">
        <ele>19.8443604</ele>
        <time>2010-12-31T14:18:49Z</time>
      </trkpt>
      <trkpt lat="43.60621" lon="6.90375">
        <ele>21.286377</ele>
        <time>2010-12-31T14:18:52Z</time>
      </trkpt>
      <trkpt lat="43.60607" lon="6.90401">
        <ele>23.6895752</ele>
        <time>2010-12-31T14:18:59Z</time>
      </trkpt>
      <trkpt lat="43.6058" lon="6.90445">
        <ele>27.0543213</ele>
        <time>2010-12-31T14:19:14Z</time>
      </trkpt>
      <trkpt lat="43.60559" lon="6.90496">
        <ele>29.4575195</ele>
        <time>2010-12-31T14:19:31Z</time>
      </trkpt>
      <trkpt lat="43.60533" lon="6.90554">
        <ele>32.8222656</ele>
        <time>2010-12-31T14:19:48Z</time>
      </trkpt>
      <trkpt lat="43.60504" lon="6.90621">
        <ele>35.7060547</ele>
        <time>2010-12-31T14:20:06Z</time>
      </trkpt>
      <trkpt lat="43.60479" lon="6.90679">
        <ele>39.0706787</ele>
        <time>2010-12-31T14:20:22Z</time>
      </trkpt>
      <trkpt lat="43.60454" lon="6.90738">
        <ele>41.9547119</ele>
        <time>2010-12-31T14:20:39Z</time>
      </trkpt>
      <trkpt lat="43.60429" lon="6.90812">
        <ele>43.3966064</ele>
        <time>2010-12-31T14:20:57Z</time>
      </trkpt>
      <trkpt lat="43.60408" lon="6.90917">
        <ele>42.9160156</ele>
        <time>2010-12-31T14:21:16Z</time>
      </trkpt>
      <trkpt lat="43.60405" lon="6.90947">
        <ele>41.473999</ele>
        <time>2010-12-31T14:21:22Z</time>
      </trkpt>
    </trkseg>
  </trk>
</gpx>